Time;durP1;ratioP1;P1;durP2;ratioP2;P2;SDS_P1;SDS_P2;PMS_P1;PMS_P2;Temp;Humidity;BMP_temperature;BMP_pressure;BME280_temperature;BME280_humidity;BME280_pressure;Samples;Min_cycle;Max_cycle;Signal;HPM_P1;HPM_P2
2023/03/17 00:02:10;;;;;;;14.50;8.57;;;;;;;3.55;60.57;99597.38;10390988;28;20037;-64
2023/03/17 00:07:15;;;;;;;20.88;12.68;;;;;;;3.53;60.36;99596.59;10387736;28;20068;-65
2023/03/17 00:12:18;;;;;;;21.58;12.38;;;;;;;3.47;60.32;99596.81;10390116;28;20060;-65
2023/03/17 00:17:19;;;;;;;19.35;11.52;;;;;;;3.48;60.48;99596.75;10389865;28;20543;-65
2023/03/17 00:22:21;;;;;;;23.73;12.05;;;;;;;3.59;60.42;99584.28;10390327;28;20107;-65
2023/03/17 00:27:23;;;;;;;19.02;12.15;;;;;;;3.63;60.45;99595.34;10388106;28;20059;-65
2023/03/17 00:32:25;;;;;;;14.55;10.00;;;;;;;3.69;60.34;99595.13;10390106;28;20490;-65
2023/03/17 00:37:28;;;;;;;13.70;9.43;;;;;;;3.71;60.30;99591.59;10392255;28;20045;-65
2023/03/17 00:42:29;;;;;;;17.80;10.80;;;;;;;3.72;60.45;99595.84;10384127;28;20042;-65
2023/03/17 00:47:31;;;;;;;16.70;10.20;;;;;;;3.71;60.28;99586.41;10391404;28;20049;-65
2023/03/17 00:52:37;;;;;;;17.13;10.40;;;;;;;3.60;60.70;99593.72;10394243;28;20052;-65
2023/03/17 00:57:40;;;;;;;20.67;10.23;;;;;;;3.70;60.23;99581.31;10371599;28;20050;-65
2023/03/17 01:02:43;;;;;;;12.07;8.32;;;;;;;3.50;59.81;99573.44;10388541;28;20516;-65
2023/03/17 01:07:51;;;;;;;14.20;8.90;;;;;;;3.33;60.55;99568.91;10386790;28;20741;-65
2023/03/17 01:12:56;;;;;;;12.88;7.70;;;;;;;3.40;60.63;99561.75;10387961;28;20744;-64
2023/03/17 01:18:01;;;;;;;12.60;7.90;;;;;;;3.33;60.49;99557.72;10393052;28;20185;-66
2023/03/17 01:23:03;;;;;;;15.25;8.30;;;;;;;3.28;60.44;99562.19;10388250;28;20069;-65
2023/03/17 01:28:05;;;;;;;12.40;8.25;;;;;;;3.31;60.56;99564.69;10387256;28;20476;-65
2023/03/17 01:33:09;;;;;;;13.77;8.45;;;;;;;3.22;60.60;99560.66;10387033;28;20056;-65
2023/03/17 01:38:12;;;;;;;13.85;8.07;;;;;;;2.98;60.92;99557.22;10386029;28;20053;-65
2023/03/17 01:43:19;;;;;;;14.63;8.48;;;;;;;2.90;61.26;99561.81;10390705;28;20514;-65
2023/03/17 01:48:22;;;;;;;12.68;8.50;;;;;;;2.91;61.33;99566.06;10389352;28;20050;-65
2023/03/17 01:53:25;;;;;;;13.38;8.70;;;;;;;2.86;61.30;99562.81;10383801;28;20394;-65
2023/03/17 01:58:27;;;;;;;14.48;8.60;;;;;;;2.84;61.56;99559.44;10383973;28;20057;-65
2023/03/17 02:03:28;;;;;;;13.85;8.65;;;;;;;2.79;61.27;99539.81;10424448;28;20049;-64
2023/03/17 02:08:30;;;;;;;17.63;8.82;;;;;;;2.71;61.30;99545.25;10391417;28;20061;-64
2023/03/17 02:13:33;;;;;;;13.55;9.10;;;;;;;2.73;61.56;99530.56;10370379;28;20064;-65
2023/03/17 02:18:35;;;;;;;14.27;8.65;;;;;;;2.46;61.64;99508.25;10385962;28;20065;-64
2023/03/17 02:23:49;;;;;;;11.02;8.25;;;;;;;2.30;62.04;99486.44;10389977;28;20551;-64
2023/03/17 02:28:51;;;;;;;13.85;8.90;;;;;;;2.16;62.31;99497.22;10394383;28;20284;-65
2023/03/17 02:33:53;;;;;;;14.35;10.07;;;;;;;2.21;62.70;99503.06;10395466;28;20045;-65
2023/03/17 02:38:56;;;;;;;17.42;10.57;;;;;;;2.20;62.69;99511.69;10393371;28;20052;-65
2023/03/17 02:43:58;;;;;;;14.27;9.70;;;;;;;2.22;62.70;99506.47;10389941;28;20489;-65
2023/03/17 02:49:00;;;;;;;18.17;10.30;;;;;;;2.12;62.68;99493.06;10389057;28;20794;-65
2023/03/17 02:54:03;;;;;;;19.98;10.75;;;;;;;2.10;62.87;99504.31;10393051;28;20081;-64
2023/03/17 02:59:05;;;;;;;16.85;9.95;;;;;;;2.10;62.85;99494.00;10393691;28;20052;-64
2023/03/17 03:04:07;;;;;;;18.05;10.18;;;;;;;2.05;62.82;99491.56;10397249;28;20049;-64
2023/03/17 03:09:10;;;;;;;13.63;9.40;;;;;;;2.12;62.77;99479.31;10401296;28;20041;-64
2023/03/17 03:14:12;;;;;;;13.27;8.40;;;;;;;2.10;62.62;99486.25;10399755;28;20152;-65
2023/03/17 03:19:15;;;;;;;14.68;9.68;;;;;;;2.12;62.67;99475.00;10399529;28;20149;-65
2023/03/17 03:24:16;;;;;;;17.83;10.38;;;;;;;2.05;62.49;99480.41;10399493;28;20041;-65
2023/03/17 03:29:19;;;;;;;16.63;9.60;;;;;;;2.02;63.01;99481.34;10397914;28;20060;-64
2023/03/17 03:34:21;;;;;;;16.27;10.23;;;;;;;1.93;63.06;99493.69;10403656;28;20421;-65
2023/03/17 03:39:23;;;;;;;15.23;10.50;;;;;;;1.93;62.93;99462.75;10399381;28;20052;-64
2023/03/17 03:44:25;;;;;;;15.75;10.02;;;;;;;1.81;63.06;99476.88;10397277;28;20410;-64
2023/03/17 03:49:26;;;;;;;13.95;9.30;;;;;;;1.82;63.19;99488.88;10416907;28;20494;-65
2023/03/17 03:54:28;;;;;;;17.27;9.82;;;;;;;1.80;63.56;99474.34;10396842;28;20065;-64
2023/03/17 03:59:30;;;;;;;13.30;8.32;;;;;;;1.83;63.47;99474.22;10423436;28;20048;-65
2023/03/17 04:04:31;;;;;;;12.30;8.43;;;;;;;1.75;63.25;99484.78;10412764;28;20064;-66
2023/03/17 04:09:33;;;;;;;14.38;8.70;;;;;;;1.75;63.59;99481.38;10390698;28;20057;-65
2023/03/17 04:14:35;;;;;;;14.10;8.98;;;;;;;1.67;63.45;99483.34;10391547;28;20576;-64
2023/03/17 04:19:38;;;;;;;12.85;8.75;;;;;;;1.47;63.25;99480.53;10390388;28;20068;-64
2023/03/17 04:24:39;;;;;;;16.02;9.18;;;;;;;1.33;63.79;99476.66;10390024;28;20053;-64
2023/03/17 04:29:42;;;;;;;14.85;9.88;;;;;;;1.43;63.63;99474.63;10389096;28;20053;-66
2023/03/17 04:34:44;;;;;;;13.80;9.77;;;;;;;1.46;63.67;99478.84;10390825;28;20045;-64
2023/03/17 04:39:46;;;;;;;13.88;9.48;;;;;;;1.44;63.77;99488.38;10392852;28;20060;-66
2023/03/17 04:44:48;;;;;;;17.98;10.65;;;;;;;1.42;63.77;99479.84;10390510;28;20036;-64
2023/03/17 04:49:49;;;;;;;16.90;10.18;;;;;;;1.45;63.73;99492.63;10388498;28;20049;-64
2023/03/17 04:54:51;;;;;;;14.98;10.27;;;;;;;1.47;63.82;99485.69;10391037;28;20080;-65
2023/03/17 04:59:56;;;;;;;16.10;10.85;;;;;;;1.46;63.86;99496.91;10390357;28;20136;-64
2023/03/17 05:04:58;;;;;;;15.30;10.43;;;;;;;1.44;63.91;99493.53;10390633;28;20714;-64
2023/03/17 05:10:00;;;;;;;15.02;9.50;;;;;;;1.42;63.89;99493.53;10389630;28;20048;-65
2023/03/17 05:15:04;;;;;;;17.80;10.80;;;;;;;1.41;63.63;99488.44;10390365;28;20091;-64
2023/03/17 05:20:07;;;;;;;16.27;11.20;;;;;;;1.28;63.87;99505.97;10389758;28;20371;-65
2023/03/17 05:25:09;;;;;;;17.10;11.18;;;;;;;1.16;63.93;99502.03;10392248;28;20049;-64
2023/03/17 05:30:11;;;;;;;14.75;10.48;;;;;;;1.11;63.94;99500.50;10388236;28;20045;-64
2023/03/17 05:35:12;;;;;;;15.55;11.38;;;;;;;1.03;63.91;99505.88;10393566;28;20049;-64
2023/03/17 05:40:14;;;;;;;20.30;12.18;;;;;;;0.98;63.81;99492.25;10388268;28;20041;-63
2023/03/17 05:45:17;;;;;;;18.35;11.63;;;;;;;0.94;64.22;99490.66;10401566;28;20556;-64
2023/03/17 05:50:19;;;;;;;15.73;10.10;;;;;;;1.09;64.17;99500.53;10386003;28;20054;-65
2023/03/17 05:55:20;;;;;;;15.23;10.95;;;;;;;1.09;64.12;99490.25;10387964;28;20045;-64
2023/03/17 06:00:23;;;;;;;17.40;12.15;;;;;;;0.92;63.95;99492.44;10392235;28;20048;-64
2023/03/17 06:05:25;;;;;;;17.65;10.93;;;;;;;0.92;64.25;99479.56;10398441;28;20065;-65
2023/03/17 06:10:27;;;;;;;17.98;11.00;;;;;;;1.02;64.02;99481.00;10396271;28;20045;-64
2023/03/17 06:15:30;;;;;;;24.40;16.08;;;;;;;0.90;64.24;99483.91;10394811;28;20451;-64
2023/03/17 06:20:33;;;;;;;18.70;13.30;;;;;;;1.17;64.01;99478.00;10392525;28;20053;-65
2023/03/17 06:25:35;;;;;;;14.93;10.93;;;;;;;1.38;63.57;99473.91;10394236;28;20041;-64
2023/03/17 06:30:37;;;;;;;17.20;10.07;;;;;;;1.48;63.57;99474.50;10393544;28;20069;-64
2023/03/17 06:35:41;;;;;;;16.90;10.75;;;;;;;1.81;63.34;99471.72;10395336;28;20516;-64
2023/03/17 06:40:43;;;;;;;14.63;10.13;;;;;;;2.10;62.93;99483.66;10392781;28;20216;-66
2023/03/17 06:45:45;;;;;;;15.73;11.30;;;;;;;2.10;62.99;99483.66;10393162;28;20059;-64
2023/03/17 06:50:46;;;;;;;14.30;10.77;;;;;;;2.31;62.87;99484.72;10397614;28;20501;-64
2023/03/17 06:55:48;;;;;;;15.48;9.70;;;;;;;2.60;62.53;99482.81;10401752;28;20048;-65
2023/03/17 07:00:52;;;;;;;16.48;10.57;;;;;;;2.91;62.09;99490.31;10410279;28;20049;-64
2023/03/17 07:05:54;;;;;;;19.77;11.05;;;;;;;3.27;61.81;99473.50;10402623;28;20045;-65
2023/03/17 07:10:56;;;;;;;15.80;9.70;;;;;;;3.55;61.47;99468.13;10391784;28;20042;-64
2023/03/17 07:15:58;;;;;;;17.50;11.65;;;;;;;3.58;61.33;99481.75;10392931;28;20061;-65
2023/03/17 07:21:02;;;;;;;12.82;9.10;;;;;;;3.56;61.01;99470.63;10388128;28;20160;-65
2023/03/17 07:26:04;;;;;;;12.98;8.63;;;;;;;3.61;60.40;99473.03;10408661;28;20072;-65
2023/03/17 07:31:12;;;;;;;11.70;8.50;;;;;;;3.72;60.38;99469.13;10391999;28;20045;-65
2023/03/17 07:36:14;;;;;;;11.88;8.43;;;;;;;3.87;59.97;99470.31;10376610;28;20057;-65
2023/03/17 07:41:16;;;;;;;13.02;8.35;;;;;;;4.18;59.62;99470.75;10372146;28;20042;-65
2023/03/17 07:46:18;;;;;;;17.38;9.88;;;;;;;4.42;59.35;99480.09;10396401;28;20537;-66
2023/03/17 07:51:24;;;;;;;13.50;8.75;;;;;;;4.67;59.12;99464.34;10391376;28;20443;-64
2023/03/17 07:56:25;;;;;;;17.30;8.55;;;;;;;5.36;58.17;99460.38;10387386;28;20045;-65
2023/03/17 08:01:27;;;;;;;13.18;8.32;;;;;;;6.02;56.79;99454.56;10398047;28;20057;-65
2023/03/17 08:06:30;;;;;;;11.68;8.35;;;;;;;6.58;55.67;99440.53;10386604;28;20079;-65
2023/03/17 08:11:32;;;;;;;11.35;7.90;;;;;;;6.94;54.76;99451.63;10384498;28;20041;-64
2023/03/17 08:16:33;;;;;;;14.68;7.90;;;;;;;7.49;53.80;99442.56;10390539;28;20371;-65
2023/03/17 08:21:35;;;;;;;12.77;7.38;;;;;;;7.98;52.76;99438.03;10388194;28;20061;-64
2023/03/17 08:26:37;;;;;;;11.88;6.88;;;;;;;8.40;51.08;99442.59;10390014;28;20132;-65
2023/03/17 08:31:39;;;;;;;12.02;6.90;;;;;;;8.46;50.69;99434.41;10386462;28;20089;-64
2023/03/17 08:36:41;;;;;;;14.63;8.00;;;;;;;8.92;50.11;99448.13;10386518;28;20063;-65
2023/03/17 08:41:43;;;;;;;11.95;7.03;;;;;;;9.53;49.23;99433.81;10386145;28;20099;-65
2023/03/17 08:46:45;;;;;;;8.90;6.50;;;;;;;10.00;47.95;99422.13;10385978;28;20044;-65
2023/03/17 08:51:48;;;;;;;9.52;6.22;;;;;;;10.50;47.29;99422.25;10386744;28;20063;-65
2023/03/17 08:56:50;;;;;;;8.70;5.60;;;;;;;10.37;46.34;99410.91;10395353;28;20064;-65
2023/03/17 09:01:53;;;;;;;8.68;5.68;;;;;;;10.23;46.37;99392.72;10377254;28;20049;-65
2023/03/17 09:06:55;;;;;;;10.85;5.90;;;;;;;10.40;46.69;99395.00;10386798;28;20182;-65
2023/03/17 09:12:06;;;;;;;10.45;5.90;;;;;;;10.34;46.48;99384.97;10387676;28;20516;-65
2023/03/17 09:17:13;;;;;;;13.23;5.82;;;;;;;10.49;45.57;99383.94;10380864;28;20494;-68
2023/03/17 09:22:17;;;;;;;12.00;5.90;;;;;;;10.70;46.12;99386.88;10400482;28;20468;-72
2023/03/17 09:27:19;;;;;;;9.48;5.57;;;;;;;10.85;45.56;99381.41;10385132;28;20057;-69
2023/03/17 09:32:21;;;;;;;13.45;5.90;;;;;;;11.02;45.70;99383.69;10389140;28;20037;-69
2023/03/17 09:37:25;;;;;;;9.25;5.30;;;;;;;11.22;45.10;99383.16;10388778;28;20064;-70
2023/03/17 09:42:39;;;;;;;10.10;5.90;;;;;;;11.35;44.12;99374.44;10365165;28;20553;-70
2023/03/17 09:47:49;;;;;;;7.32;5.10;;;;;;;11.62;43.98;99373.25;10391664;28;20046;-68
2023/03/17 09:52:55;;;;;;;10.20;5.30;;;;;;;11.80;43.16;99376.34;10388108;28;21074;-68
2023/03/17 09:57:59;;;;;;;11.00;4.68;;;;;;;11.82;43.79;99379.69;10410881;28;20594;-68
2023/03/17 10:03:01;;;;;;;9.70;4.55;;;;;;;12.31;43.59;99385.59;10379588;28;20192;-68
2023/03/17 10:08:25;;;;;;;9.57;4.40;;;;;;;12.50;42.13;99380.63;10380529;28;20052;-69
2023/03/17 10:13:55;;;;;;;9.15;4.70;;;;;;;12.67;41.81;99359.19;10372666;28;20608;-69
2023/03/17 10:19:13;;;;;;;8.52;4.15;;;;;;;12.83;41.41;99353.56;10374513;28;20376;-69
2023/03/17 10:24:15;;;;;;;10.75;4.35;;;;;;;13.02;41.83;99343.31;10381421;28;20067;-69
2023/03/17 10:29:22;;;;;;;9.85;4.82;;;;;;;13.39;40.68;99341.22;10380770;28;20076;-69
2023/03/17 10:34:33;;;;;;;7.72;4.43;;;;;;;13.62;40.36;99335.78;10380087;28;20545;-70
2023/03/17 10:39:48;;;;;;;7.75;3.97;;;;;;;13.97;40.11;99332.88;10379658;28;20297;-70
2023/03/17 10:44:52;;;;;;;6.93;3.58;;;;;;;14.47;39.94;99333.91;10395910;28;20116;-70
2023/03/17 10:49:56;;;;;;;7.53;3.90;;;;;;;14.72;38.58;99346.66;10385489;28;20045;-70
2023/03/17 10:55:05;;;;;;;6.22;3.90;;;;;;;14.64;37.77;99338.59;10391855;28;20592;-69
2023/03/17 11:00:18;;;;;;;8.02;3.80;;;;;;;14.42;38.33;99333.47;10392784;28;20049;-69
2023/03/17 11:05:25;;;;;;;8.35;3.20;;;;;;;14.68;37.96;99328.63;10389630;28;20053;-69
2023/03/17 11:10:27;;;;;;;7.28;2.78;;;;;;;14.70;37.88;99313.53;10385344;28;20461;-70
2023/03/17 11:15:53;;;;;;;5.78;2.42;;;;;;;14.86;36.43;99306.81;10386581;28;20077;-69
2023/03/17 11:21:01;;;;;;;20.63;14.50;;;;;;;14.84;38.38;99307.94;10388156;28;20053;-70
2023/03/17 11:26:30;;;;;;;16.60;8.20;;;;;;;15.00;38.00;99293.25;10391517;28;20548;-69
2023/03/17 11:32:03;;;;;;;6.18;2.75;;;;;;;15.25;37.40;99291.94;10391326;28;20351;-69
2023/03/17 11:37:23;;;;;;;8.63;2.97;;;;;;;15.56;36.64;99296.16;10390387;28;20044;-70
2023/03/17 11:42:30;;;;;;;7.35;2.50;;;;;;;15.62;36.29;99285.06;10387937;28;20049;-70
2023/03/17 11:47:53;;;;;;;4.50;2.17;;;;;;;15.53;35.47;99270.06;10391672;28;20055;-70
2023/03/17 11:53:04;;;;;;;5.40;2.05;;;;;;;15.47;34.72;99267.97;10385259;28;20045;-69
2023/03/17 11:58:16;;;;;;;6.55;2.20;;;;;;;15.69;35.32;99256.34;10406422;28;20060;-69
2023/03/17 12:03:26;;;;;;;5.25;2.10;;;;;;;15.97;34.85;99247.56;10387543;28;20068;-70
2023/03/17 12:08:59;;;;;;;7.10;2.00;;;;;;;15.77;34.56;99257.31;10388754;28;20053;-68
2023/03/17 12:14:12;;;;;;;3.88;1.83;;;;;;;16.01;34.67;99254.22;10384371;28;20462;-69
2023/03/17 12:19:23;;;;;;;7.43;2.25;;;;;;;15.97;35.33;99247.56;10392187;28;20061;-70
2023/03/17 12:24:53;;;;;;;4.97;1.90;;;;;;;16.20;33.41;99247.06;10384158;28;20053;-69
2023/03/17 12:30:07;;;;;;;4.22;1.95;;;;;;;16.33;33.48;99253.84;10388311;28;20045;-69
2023/03/17 12:35:25;;;;;;;5.43;2.10;;;;;;;16.35;33.07;99250.09;10386873;28;20045;-69
2023/03/17 12:41:09;;;;;;;6.15;2.13;;;;;;;16.35;33.53;99246.59;10386760;28;20053;-70
2023/03/17 12:46:11;;;;;;;4.85;2.10;;;;;;;16.55;34.15;99242.97;10385399;28;20125;-70
2023/03/17 12:51:34;;;;;;;4.15;1.92;;;;;;;16.35;32.82;99236.88;10384947;28;20049;-70
2023/03/17 12:56:44;;;;;;;5.80;2.17;;;;;;;16.47;33.65;99245.50;10378327;28;20053;-70
2023/03/17 13:02:14;;;;;;;4.57;1.90;;;;;;;16.43;33.21;99244.06;10381676;28;20052;-70
2023/03/17 13:07:40;;;;;;;4.97;1.90;;;;;;;16.49;33.42;99248.84;10381469;28;20304;-69
2023/03/17 13:12:43;;;;;;;7.43;2.30;;;;;;;16.18;33.88;99241.09;10367145;28;20065;-70
2023/03/17 13:17:44;;;;;;;5.72;2.00;;;;;;;16.15;34.43;99233.50;10381004;28;20250;-70
2023/03/17 13:23:12;;;;;;;6.13;2.30;;;;;;;16.28;33.89;99224.44;10367361;28;20417;-70
2023/03/17 13:28:16;;;;;;;6.45;2.58;;;;;;;16.31;34.89;99217.03;10383925;28;20199;-70
2023/03/17 13:33:26;;;;;;;6.75;2.70;;;;;;;16.11;35.22;99207.53;10380601;28;20049;-70
2023/03/17 13:38:33;;;;;;;7.07;2.90;;;;;;;15.95;36.17;99202.88;10379216;28;20042;-70
2023/03/17 13:43:55;;;;;;;7.25;2.90;;;;;;;15.63;36.60;99209.47;10380250;28;20084;-69
2023/03/17 13:49:03;;;;;;;8.55;3.08;;;;;;;15.48;36.79;99216.94;10385508;28;20487;-70
2023/03/17 13:54:39;;;;;;;6.65;3.25;;;;;;;15.38;37.16;99202.94;10382211;28;20038;-70
2023/03/17 13:59:49;;;;;;;7.30;3.25;;;;;;;15.31;37.15;99199.16;10382537;28;20060;-70
2023/03/17 14:04:56;;;;;;;;;;;;;;;14.79;38.24;99210.09;10390584;28;20037;-70
2023/03/17 14:10:02;;;;;;;8.52;3.67;;;;;;;14.99;38.11;99201.25;10386527;28;19955;-70
2023/03/17 14:15:13;;;;;;;9.50;3.70;;;;;;;14.97;38.31;99190.00;10384638;28;20256;-69
2023/03/17 14:20:15;;;;;;;10.30;3.60;;;;;;;14.88;39.16;99188.22;10390773;28;20057;-69
2023/03/17 14:25:20;;;;;;;8.13;3.60;;;;;;;14.65;39.15;99178.88;10397240;28;20057;-70
2023/03/17 14:30:29;;;;;;;7.50;3.97;;;;;;;14.49;39.61;99182.03;10392030;28;20781;-69
2023/03/17 14:35:34;;;;;;;10.25;4.15;;;;;;;14.47;40.02;99191.84;10395359;28;20077;-69
2023/03/17 14:40:36;;;;;;;9.30;4.30;;;;;;;14.42;39.60;99197.50;10388809;28;20052;-69
2023/03/17 14:46:04;;;;;;;7.05;4.07;;;;;;;14.40;39.16;99188.06;10399407;28;20049;-70
2023/03/17 14:51:08;;;;;;;8.02;4.13;;;;;;;14.30;39.96;99181.94;10399724;28;20045;-69
2023/03/17 14:56:11;;;;;;;8.68;4.22;;;;;;;14.32;39.98;99185.28;10398100;28;20780;-70
2023/03/17 15:01:16;;;;;;;8.25;4.32;;;;;;;14.24;39.47;99171.94;10387225;28;20140;-69
2023/03/17 15:06:33;;;;;;;11.13;4.13;;;;;;;14.16;39.41;99170.00;10392259;28;20235;-70
2023/03/17 15:11:42;;;;;;;8.10;4.10;;;;;;;14.10;39.77;99181.03;10390051;28;20516;-69
2023/03/17 15:16:54;;;;;;;9.80;4.00;;;;;;;14.06;40.07;99184.06;10385061;28;20046;-70
2023/03/17 15:21:58;;;;;;;10.95;4.80;;;;;;;14.00;40.36;99181.94;10391982;28;20076;-70
2023/03/17 15:27:03;;;;;;;8.50;4.20;;;;;;;13.86;40.47;99183.09;10389346;28;21228;-69
2023/03/17 15:32:14;;;;;;;12.90;4.22;;;;;;;13.88;40.68;99188.25;10389833;28;20041;-70
2023/03/17 15:37:26;;;;;;;7.65;4.22;;;;;;;13.92;40.82;99197.53;10386973;28;20138;-69
2023/03/17 15:42:31;;;;;;;8.52;4.25;;;;;;;14.00;40.67;99195.94;10388653;28;20042;-69
2023/03/17 15:47:35;;;;;;;7.25;4.47;;;;;;;13.91;40.50;99194.09;10386126;28;20056;-69
2023/03/17 15:52:37;;;;;;;9.90;4.80;;;;;;;13.84;40.92;99186.84;10396143;28;20498;-70
2023/03/17 15:57:39;;;;;;;15.32;5.20;;;;;;;13.77;40.92;99200.50;10387028;28;20049;-70
2023/03/17 16:02:44;;;;;;;11.55;5.03;;;;;;;13.76;40.89;99195.38;10392361;28;20147;-69
2023/03/17 16:07:46;;;;;;;8.38;5.18;;;;;;;13.63;40.88;99194.75;10385550;28;20612;-69
2023/03/17 16:12:49;;;;;;;8.57;4.97;;;;;;;13.60;40.93;99202.88;10388466;28;20051;-69
2023/03/17 16:17:58;;;;;;;11.40;5.45;;;;;;;13.56;41.06;99194.41;10386755;28;20053;-69
2023/03/17 16:23:18;;;;;;;8.77;5.10;;;;;;;13.53;41.28;99191.22;10382616;28;20237;-70
2023/03/17 16:28:22;;;;;;;10.27;5.30;;;;;;;13.40;41.75;99182.66;10384740;28;20388;-69
2023/03/17 16:33:31;;;;;;;9.65;5.38;;;;;;;13.31;42.03;99183.44;10387151;28;20376;-69
2023/03/17 16:38:33;;;;;;;10.93;4.85;;;;;;;13.21;42.55;99172.03;10384630;28;20049;-70
2023/03/17 16:43:37;;;;;;;12.77;5.40;;;;;;;13.18;42.38;99159.97;10380003;28;20049;-70
2023/03/17 16:48:38;;;;;;;11.18;5.53;;;;;;;13.10;42.36;99156.31;10384842;28;20045;-70
2023/03/17 16:53:40;;;;;;;12.73;5.80;;;;;;;13.06;42.62;99160.97;10386941;28;20049;-69
2023/03/17 16:58:42;;;;;;;12.70;6.30;;;;;;;12.98;42.69;99164.22;10384642;28;20045;-70
2023/03/17 17:03:44;;;;;;;9.50;6.20;;;;;;;12.96;42.58;99174.00;10385674;28;20049;-70
2023/03/17 17:08:47;;;;;;;12.60;6.57;;;;;;;12.92;42.91;99179.66;10384359;28;20047;-71
2023/03/17 17:13:50;;;;;;;14.02;6.32;;;;;;;12.92;43.45;99179.66;10389319;28;20388;-69
2023/03/17 17:18:53;;;;;;;14.07;6.53;;;;;;;12.93;43.16;99190.03;10386773;28;20061;-70
2023/03/17 17:23:55;;;;;;;11.40;6.72;;;;;;;12.85;43.14;99195.06;10386212;28;20052;-70
2023/03/17 17:28:57;;;;;;;14.95;6.68;;;;;;;12.78;43.35;99203.56;10386834;28;20053;-69
2023/03/17 17:33:58;;;;;;;13.15;5.93;;;;;;;12.62;44.75;99203.91;10386745;28;20293;-70
2023/03/17 17:39:00;;;;;;;13.88;6.38;;;;;;;12.54;45.05;99200.22;10376092;28;20535;-70
2023/03/17 17:44:02;;;;;;;10.60;5.00;;;;;;;12.45;45.89;99204.44;10387015;28;20048;-69
2023/03/17 17:49:04;;;;;;;11.52;3.72;;;;;;;12.34;46.08;99201.81;10385810;28;20052;-70
2023/03/17 17:54:07;;;;;;;10.30;4.45;;;;;;;12.33;45.87;99202.78;10391184;28;20048;-69
2023/03/17 17:59:09;;;;;;;8.60;4.50;;;;;;;12.30;45.52;99202.16;10395957;28;20057;-70
2023/03/17 18:04:13;;;;;;;12.85;5.90;;;;;;;12.25;45.74;99199.06;10398405;28;20071;-70
2023/03/17 18:09:17;;;;;;;10.10;4.57;;;;;;;12.21;45.45;99193.22;10398836;28;20051;-69
2023/03/17 18:14:18;;;;;;;9.95;4.40;;;;;;;12.17;45.96;99204.06;10391446;28;20096;-70
2023/03/17 18:19:21;;;;;;;9.43;4.30;;;;;;;12.10;45.98;99206.31;10395883;28;20602;-69
2023/03/17 18:24:25;;;;;;;8.25;4.78;;;;;;;11.95;46.22;99210.09;10393374;28;20053;-69
2023/03/17 18:29:26;;;;;;;11.50;6.43;;;;;;;11.90;46.81;99217.50;10391010;28;20747;-69
2023/03/17 18:34:33;;;;;;;19.70;9.60;;;;;;;11.82;47.32;99217.25;10395537;28;20298;-69
2023/03/17 18:39:35;;;;;;;27.02;13.23;;;;;;;11.78;47.97;99221.91;10391161;28;20408;-69
2023/03/17 18:44:38;;;;;;;18.30;10.23;;;;;;;11.79;48.25;99215.69;10403016;28;20068;-70
2023/03/17 18:49:40;;;;;;;20.65;12.05;;;;;;;11.64;48.60;99234.34;10403202;28;20060;-69
2023/03/17 18:54:42;;;;;;;22.58;11.20;;;;;;;11.60;48.73;99243.41;10390354;28;20049;-70
2023/03/17 18:59:43;;;;;;;20.42;9.80;;;;;;;11.53;49.19;99236.94;10397614;28;20065;-69
2023/03/17 19:04:46;;;;;;;19.58;8.10;;;;;;;11.50;49.45;99245.03;10389401;28;20072;-69
2023/03/17 19:09:48;;;;;;;17.95;8.02;;;;;;;11.43;49.77;99241.19;10411216;28;20045;-69
2023/03/17 19:14:49;;;;;;;16.95;6.35;;;;;;;11.36;50.07;99242.59;10404369;28;20592;-69
2023/03/17 19:19:51;;;;;;;14.07;6.30;;;;;;;11.36;50.17;99250.44;10399075;28;20612;-70
2023/03/17 19:24:53;;;;;;;12.93;6.10;;;;;;;11.33;50.32;99238.41;10412156;28;20048;-70
2023/03/17 19:29:54;;;;;;;14.07;6.80;;;;;;;11.20;50.63;99248.94;10402787;28;20465;-69
2023/03/17 19:34:56;;;;;;;9.75;5.43;;;;;;;11.08;50.93;99255.06;10387659;28;20056;-69
2023/03/17 19:39:58;;;;;;;12.88;4.05;;;;;;;11.01;51.27;99261.66;10388434;28;20060;-69
2023/03/17 19:45:00;;;;;;;13.75;4.53;;;;;;;11.02;51.24;99263.34;10403494;28;20054;-69
2023/03/17 19:50:02;;;;;;;11.75;4.30;;;;;;;11.01;51.68;99261.66;10388617;28;20052;-62
2023/03/17 19:55:05;;;;;;;10.55;4.57;;;;;;;11.10;51.25;99261.03;10388391;28;20037;-63
2023/03/17 20:00:09;;;;;;;8.68;4.53;;;;;;;11.10;51.21;99260.19;10387613;28;20147;-63
2023/03/17 20:05:12;;;;;;;11.02;4.57;;;;;;;10.99;51.27;99268.78;10388236;28;20410;-63
2023/03/17 20:10:13;;;;;;;11.68;4.13;;;;;;;10.92;51.91;99264.94;10379097;28;20064;-63
2023/03/17 20:15:15;;;;;;;9.73;4.70;;;;;;;11.01;51.86;99276.53;10391825;28;20056;-62
2023/03/17 20:20:17;;;;;;;7.72;3.95;;;;;;;11.06;51.82;99275.28;10387761;28;20060;-62
2023/03/17 20:25:19;;;;;;;12.60;3.70;;;;;;;11.07;52.15;99276.94;10390530;28;20047;-63
2023/03/17 20:30:21;;;;;;;10.68;4.53;;;;;;;11.04;52.69;99277.19;10384581;28;20406;-63
2023/03/17 20:35:24;;;;;;;11.30;5.20;;;;;;;10.95;54.20;99282.22;10389719;28;20218;-63
2023/03/17 20:40:27;;;;;;;10.73;5.40;;;;;;;10.85;54.64;99292.47;10386920;28;20052;-63
2023/03/17 20:45:29;;;;;;;13.93;5.50;;;;;;;10.75;55.71;99286.22;10387747;28;20045;-63
2023/03/17 20:50:33;;;;;;;12.10;5.00;;;;;;;10.70;56.22;99297.97;10382784;28;20050;-63
2023/03/17 20:55:35;;;;;;;17.05;6.72;;;;;;;10.56;56.62;99298.94;10387982;28;20049;-62
2023/03/17 21:00:37;;;;;;;13.52;7.20;;;;;;;10.41;57.26;99298.22;10388544;28;20049;-63
2023/03/17 21:05:39;;;;;;;11.23;4.78;;;;;;;10.30;57.05;99285.03;10386190;28;20529;-63
2023/03/17 21:10:41;;;;;;;11.55;5.45;;;;;;;10.31;57.57;99288.50;10377308;28;20060;-63
2023/03/17 21:15:43;;;;;;;8.80;5.18;;;;;;;10.28;57.77;99291.28;10371630;28;20467;-62
2023/03/17 21:20:45;;;;;;;10.15;5.22;;;;;;;10.27;58.33;99305.31;10386300;28;20049;-63
2023/03/17 21:25:47;;;;;;;13.13;5.90;;;;;;;10.11;58.52;99295.09;10386018;28;20087;-63
2023/03/17 21:30:49;;;;;;;13.10;6.15;;;;;;;10.03;58.79;99293.94;10402635;28;20057;-63
2023/03/17 21:35:50;;;;;;;8.73;5.28;;;;;;;9.92;59.42;99294.63;10395567;28;20457;-62
2023/03/17 21:40:56;;;;;;;15.00;5.60;;;;;;;9.97;59.76;99292.53;10387723;28;20053;-62
2023/03/17 21:45:58;;;;;;;11.27;5.70;;;;;;;9.98;59.91;99299.44;10384559;28;20056;-63
2023/03/17 21:51:00;;;;;;;12.40;5.88;;;;;;;9.95;60.16;99297.03;10384197;28;20047;-63
2023/03/17 21:56:02;;;;;;;11.63;6.60;;;;;;;9.96;60.34;99313.56;10384434;28;20039;-63
2023/03/17 22:01:05;;;;;;;13.52;6.63;;;;;;;9.87;60.48;99308.97;10381265;28;20045;-63
2023/03/17 22:06:08;;;;;;;19.00;6.53;;;;;;;9.73;61.19;99315.06;10385740;28;20092;-64
2023/03/17 22:11:13;;;;;;;13.73;7.60;;;;;;;9.77;61.33;99321.75;10384869;28;20044;-64
2023/03/17 22:16:15;;;;;;;16.40;8.13;;;;;;;9.86;61.18;99325.53;10386075;28;20044;-63
2023/03/17 22:21:18;;;;;;;14.82;8.30;;;;;;;9.88;61.19;99336.72;10384337;28;20148;-63
2023/03/17 22:26:21;;;;;;;11.35;7.22;;;;;;;9.84;61.31;99343.09;10383840;28;20548;-62
2023/03/17 22:31:26;;;;;;;12.02;6.68;;;;;;;9.64;61.99;99340.00;10383259;28;20045;-62
2023/03/17 22:36:28;;;;;;;14.00;7.95;;;;;;;9.56;62.21;99344.03;10387091;28;20748;-62
2023/03/17 22:41:30;;;;;;;14.93;8.38;;;;;;;9.58;62.41;99342.16;10390776;28;20056;-62
2023/03/17 22:46:32;;;;;;;14.20;8.02;;;;;;;9.59;62.38;99349.91;10389575;28;20052;-62
2023/03/17 22:51:35;;;;;;;13.50;7.70;;;;;;;9.64;62.29;99353.06;10392156;28;20049;-62
2023/03/17 22:56:37;;;;;;;14.98;7.07;;;;;;;9.67;62.31;99354.63;10390854;28;20299;-62
2023/03/17 23:01:39;;;;;;;15.63;7.65;;;;;;;9.69;62.39;99344.94;10389988;28;20057;-62
2023/03/17 23:06:41;;;;;;;15.10;7.63;;;;;;;9.61;62.58;99353.25;10395109;28;20077;-62
2023/03/17 23:11:42;;;;;;;13.73;8.20;;;;;;;9.64;62.66;99363.50;10396745;28;20061;-63
2023/03/17 23:16:45;;;;;;;14.32;8.55;;;;;;;9.64;62.77;99366.13;10385738;28;20417;-62
2023/03/17 23:21:47;;;;;;;15.25;8.45;;;;;;;9.56;62.98;99370.97;10391527;28;20064;-62
2023/03/17 23:26:49;;;;;;;17.92;9.68;;;;;;;9.49;63.24;99380.13;10388101;28;20048;-62
2023/03/17 23:31:50;;;;;;;15.68;8.50;;;;;;;9.42;63.67;99385.84;10395082;28;20517;-62